sensor_id;sensor_type;location;lat;lon;timestamp;P1;durP1;ratioP1;P2;durP2;ratioP2
48805;SDS011;34625;47.176;27.548;2023-08-21T00:02:23;7.50;;;3.38;;
48805;SDS011;34625;47.176;27.548;2023-08-21T00:04:51;5.57;;;3.22;;
48805;SDS011;34625;47.176;27.548;2023-08-21T00:07:17;4.53;;;3.35;;
48805;SDS011;34625;47.176;27.548;2023-08-21T00:09:42;6.03;;;3.05;;
48805;SDS011;34625;47.176;27.548;2023-08-21T00:12:08;3.58;;;3.08;;
48805;SDS011;34625;47.176;27.548;2023-08-21T00:14:35;5.47;;;3.80;;
48805;SDS011;34625;47.176;27.548;2023-08-21T00:17:01;3.28;;;2.70;;
48805;SDS011;34625;47.176;27.548;2023-08-21T00:19:31;5.30;;;3.08;;
48805;SDS011;34625;47.176;27.548;2023-08-21T00:21:58;3.72;;;3.20;;
48805;SDS011;34625;47.176;27.548;2023-08-21T00:24:24;6.18;;;3.28;;
48805;SDS011;34625;47.176;27.548;2023-08-21T00:26:50;5.13;;;3.15;;
48805;SDS011;34625;47.176;27.548;2023-08-21T00:29:17;4.43;;;3.80;;
48805;SDS011;34625;47.176;27.548;2023-08-21T00:31:43;6.50;;;3.47;;
48805;SDS011;34625;47.176;27.548;2023-08-21T00:34:09;5.28;;;3.10;;
48805;SDS011;34625;47.176;27.548;2023-08-21T00:36:35;4.90;;;3.28;;
48805;SDS011;34625;47.176;27.548;2023-08-21T00:39:01;3.95;;;2.88;;
48805;SDS011;34625;47.176;27.548;2023-08-21T00:41:28;7.18;;;3.40;;
48805;SDS011;34625;47.176;27.548;2023-08-21T00:43:54;4.90;;;3.33;;
48805;SDS011;34625;47.176;27.548;2023-08-21T00:46:20;3.88;;;3.47;;
48805;SDS011;34625;47.176;27.548;2023-08-21T00:48:47;4.05;;;3.53;;
48805;SDS011;34625;47.176;27.548;2023-08-21T00:51:14;5.45;;;3.38;;
48805;SDS011;34625;47.176;27.548;2023-08-21T00:53:41;4.97;;;3.30;;
48805;SDS011;34625;47.176;27.548;2023-08-21T00:56:08;4.30;;;3.03;;
48805;SDS011;34625;47.176;27.548;2023-08-21T00:58:35;4.72;;;2.72;;
48805;SDS011;34625;47.176;27.548;2023-08-21T01:01:01;4.05;;;2.80;;
48805;SDS011;34625;47.176;27.548;2023-08-21T01:03:30;6.47;;;3.28;;
48805;SDS011;34625;47.176;27.548;2023-08-21T01:05:56;3.83;;;3.30;;
48805;SDS011;34625;47.176;27.548;2023-08-21T01:11:12;5.45;;;3.10;;
48805;SDS011;34625;47.176;27.548;2023-08-21T01:13:47;4.22;;;3.80;;
48805;SDS011;34625;47.176;27.548;2023-08-21T01:16:18;7.05;;;3.10;;
48805;SDS011;34625;47.176;27.548;2023-08-21T01:18:47;5.60;;;3.35;;
48805;SDS011;34625;47.176;27.548;2023-08-21T01:21:14;4.70;;;3.63;;
48805;SDS011;34625;47.176;27.548;2023-08-21T01:23:42;8.70;;;3.33;;
48805;SDS011;34625;47.176;27.548;2023-08-21T01:26:08;6.70;;;3.40;;
48805;SDS011;34625;47.176;27.548;2023-08-21T01:28:35;6.30;;;3.22;;
48805;SDS011;34625;47.176;27.548;2023-08-21T01:33:35;6.53;;;3.22;;
48805;SDS011;34625;47.176;27.548;2023-08-21T01:36:06;4.68;;;3.20;;
48805;SDS011;34625;47.176;27.548;2023-08-21T01:38:33;7.57;;;3.10;;
48805;SDS011;34625;47.176;27.548;2023-08-21T01:41:01;7.03;;;3.50;;
48805;SDS011;34625;47.176;27.548;2023-08-21T01:43:27;5.13;;;3.00;;
48805;SDS011;34625;47.176;27.548;2023-08-21T01:45:54;7.53;;;3.30;;
48805;SDS011;34625;47.176;27.548;2023-08-21T01:48:20;9.40;;;3.25;;
48805;SDS011;34625;47.176;27.548;2023-08-21T01:50:46;5.70;;;3.47;;
48805;SDS011;34625;47.176;27.548;2023-08-21T01:53:12;4.45;;;3.05;;
48805;SDS011;34625;47.176;27.548;2023-08-21T01:55:38;4.43;;;2.90;;
48805;SDS011;34625;47.176;27.548;2023-08-21T01:58:04;5.85;;;3.50;;
48805;SDS011;34625;47.176;27.548;2023-08-21T02:00:30;4.55;;;3.50;;
48805;SDS011;34625;47.176;27.548;2023-08-21T02:02:56;4.68;;;3.22;;
48805;SDS011;34625;47.176;27.548;2023-08-21T02:05:22;4.50;;;3.25;;
48805;SDS011;34625;47.176;27.548;2023-08-21T02:07:48;4.40;;;3.75;;
48805;SDS011;34625;47.176;27.548;2023-08-21T02:10:14;4.78;;;3.47;;
48805;SDS011;34625;47.176;27.548;2023-08-21T02:12:40;5.80;;;3.28;;
48805;SDS011;34625;47.176;27.548;2023-08-21T02:15:07;6.97;;;3.67;;
48805;SDS011;34625;47.176;27.548;2023-08-21T02:17:33;6.82;;;3.85;;
48805;SDS011;34625;47.176;27.548;2023-08-21T02:19:59;11.63;;;3.50;;
48805;SDS011;34625;47.176;27.548;2023-08-21T02:22:25;6.65;;;3.35;;
48805;SDS011;34625;47.176;27.548;2023-08-21T02:24:51;5.00;;;3.38;;
48805;SDS011;34625;47.176;27.548;2023-08-21T02:27:18;9.20;;;3.45;;
48805;SDS011;34625;47.176;27.548;2023-08-21T02:29:43;5.80;;;3.50;;
48805;SDS011;34625;47.176;27.548;2023-08-21T02:32:09;5.25;;;3.20;;
48805;SDS011;34625;47.176;27.548;2023-08-21T02:34:35;8.80;;;3.58;;
48805;SDS011;34625;47.176;27.548;2023-08-21T02:37:01;7.78;;;4.00;;
48805;SDS011;34625;47.176;27.548;2023-08-21T02:39:28;4.00;;;3.30;;
48805;SDS011;34625;47.176;27.548;2023-08-21T02:41:54;5.50;;;3.40;;
48805;SDS011;34625;47.176;27.548;2023-08-21T02:44:20;6.22;;;3.78;;
48805;SDS011;34625;47.176;27.548;2023-08-21T02:46:46;4.22;;;3.58;;
48805;SDS011;34625;47.176;27.548;2023-08-21T02:49:12;5.63;;;3.80;;
48805;SDS011;34625;47.176;27.548;2023-08-21T02:51:38;4.88;;;3.67;;
48805;SDS011;34625;47.176;27.548;2023-08-21T02:54:05;7.97;;;3.60;;
48805;SDS011;34625;47.176;27.548;2023-08-21T02:56:32;4.28;;;3.63;;
48805;SDS011;34625;47.176;27.548;2023-08-21T02:58:58;4.85;;;3.90;;
48805;SDS011;34625;47.176;27.548;2023-08-21T03:01:24;4.43;;;3.90;;
48805;SDS011;34625;47.176;27.548;2023-08-21T03:03:50;11.18;;;4.28;;
48805;SDS011;34625;47.176;27.548;2023-08-21T03:06:16;4.90;;;3.53;;
48805;SDS011;34625;47.176;27.548;2023-08-21T03:08:42;5.03;;;3.58;;
48805;SDS011;34625;47.176;27.548;2023-08-21T03:11:09;7.82;;;4.05;;
48805;SDS011;34625;47.176;27.548;2023-08-21T03:13:35;6.60;;;4.13;;
48805;SDS011;34625;47.176;27.548;2023-08-21T03:16:01;9.73;;;3.83;;
48805;SDS011;34625;47.176;27.548;2023-08-21T03:18:30;4.75;;;3.83;;
48805;SDS011;34625;47.176;27.548;2023-08-21T03:20:57;5.30;;;3.45;;
48805;SDS011;34625;47.176;27.548;2023-08-21T03:23:23;7.47;;;3.67;;
48805;SDS011;34625;47.176;27.548;2023-08-21T03:25:52;8.82;;;4.60;;
48805;SDS011;34625;47.176;27.548;2023-08-21T03:28:18;10.40;;;3.63;;
48805;SDS011;34625;47.176;27.548;2023-08-21T03:30:44;4.93;;;3.88;;
48805;SDS011;34625;47.176;27.548;2023-08-21T03:33:10;6.55;;;4.47;;
48805;SDS011;34625;47.176;27.548;2023-08-21T03:35:37;4.85;;;4.00;;
48805;SDS011;34625;47.176;27.548;2023-08-21T03:38:03;6.00;;;4.28;;
48805;SDS011;34625;47.176;27.548;2023-08-21T03:40:39;5.75;;;4.72;;
48805;SDS011;34625;47.176;27.548;2023-08-21T03:43:05;10.52;;;4.97;;
48805;SDS011;34625;47.176;27.548;2023-08-21T03:45:31;6.57;;;4.13;;
48805;SDS011;34625;47.176;27.548;2023-08-21T03:47:57;4.85;;;4.10;;
48805;SDS011;34625;47.176;27.548;2023-08-21T03:50:23;5.00;;;3.97;;
48805;SDS011;34625;47.176;27.548;2023-08-21T03:52:50;6.90;;;4.80;;
48805;SDS011;34625;47.176;27.548;2023-08-21T03:55:16;6.95;;;4.82;;
48805;SDS011;34625;47.176;27.548;2023-08-21T03:57:42;9.55;;;4.50;;
48805;SDS011;34625;47.176;27.548;2023-08-21T04:00:08;8.60;;;4.90;;
48805;SDS011;34625;47.176;27.548;2023-08-21T04:02:40;7.15;;;5.10;;
48805;SDS011;34625;47.176;27.548;2023-08-21T04:05:07;7.32;;;4.60;;
48805;SDS011;34625;47.176;27.548;2023-08-21T04:07:33;9.57;;;4.63;;
48805;SDS011;34625;47.176;27.548;2023-08-21T04:09:59;9.38;;;4.55;;
48805;SDS011;34625;47.176;27.548;2023-08-21T04:12:26;5.78;;;4.78;;
48805;SDS011;34625;47.176;27.548;2023-08-21T04:14:52;7.00;;;4.72;;
48805;SDS011;34625;47.176;27.548;2023-08-21T04:17:21;12.07;;;4.75;;
48805;SDS011;34625;47.176;27.548;2023-08-21T04:19:48;10.35;;;4.80;;
48805;SDS011;34625;47.176;27.548;2023-08-21T04:22:16;9.60;;;4.80;;
48805;SDS011;34625;47.176;27.548;2023-08-21T04:24:42;10.95;;;5.13;;
48805;SDS011;34625;47.176;27.548;2023-08-21T04:27:08;12.02;;;5.93;;
48805;SDS011;34625;47.176;27.548;2023-08-21T04:29:37;7.63;;;5.88;;
48805;SDS011;34625;47.176;27.548;2023-08-21T04:32:04;13.23;;;5.25;;
48805;SDS011;34625;47.176;27.548;2023-08-21T04:34:32;6.93;;;5.00;;
48805;SDS011;34625;47.176;27.548;2023-08-21T04:36:58;10.13;;;5.95;;
48805;SDS011;34625;47.176;27.548;2023-08-21T04:39:25;12.02;;;5.65;;
48805;SDS011;34625;47.176;27.548;2023-08-21T04:41:52;13.25;;;5.60;;
48805;SDS011;34625;47.176;27.548;2023-08-21T04:44:18;8.07;;;5.05;;
48805;SDS011;34625;47.176;27.548;2023-08-21T04:46:47;8.70;;;4.95;;
48805;SDS011;34625;47.176;27.548;2023-08-21T04:49:14;10.32;;;6.15;;
48805;SDS011;34625;47.176;27.548;2023-08-21T04:51:41;10.60;;;5.82;;
48805;SDS011;34625;47.176;27.548;2023-08-21T04:54:07;10.20;;;5.88;;
48805;SDS011;34625;47.176;27.548;2023-08-21T04:56:33;9.88;;;5.65;;
48805;SDS011;34625;47.176;27.548;2023-08-21T04:58:59;8.85;;;5.57;;
48805;SDS011;34625;47.176;27.548;2023-08-21T05:01:28;14.00;;;5.95;;
48805;SDS011;34625;47.176;27.548;2023-08-21T05:03:56;10.68;;;6.20;;
48805;SDS011;34625;47.176;27.548;2023-08-21T05:06:23;9.02;;;6.15;;
48805;SDS011;34625;47.176;27.548;2023-08-21T05:08:50;8.63;;;5.10;;
48805;SDS011;34625;47.176;27.548;2023-08-21T05:11:16;10.38;;;6.90;;
48805;SDS011;34625;47.176;27.548;2023-08-21T05:13:42;9.32;;;5.82;;
48805;SDS011;34625;47.176;27.548;2023-08-21T05:16:11;14.30;;;8.45;;
48805;SDS011;34625;47.176;27.548;2023-08-21T05:18:39;8.90;;;6.35;;
48805;SDS011;34625;47.176;27.548;2023-08-21T05:21:05;16.40;;;7.03;;
48805;SDS011;34625;47.176;27.548;2023-08-21T05:23:31;11.55;;;6.13;;
48805;SDS011;34625;47.176;27.548;2023-08-21T05:26:02;7.40;;;5.72;;
48805;SDS011;34625;47.176;27.548;2023-08-21T05:28:28;11.68;;;5.97;;
48805;SDS011;34625;47.176;27.548;2023-08-21T05:30:54;6.63;;;4.60;;
48805;SDS011;34625;47.176;27.548;2023-08-21T05:33:20;7.47;;;4.72;;
48805;SDS011;34625;47.176;27.548;2023-08-21T05:35:49;9.73;;;6.45;;
48805;SDS011;34625;47.176;27.548;2023-08-21T05:38:15;5.05;;;4.10;;
48805;SDS011;34625;47.176;27.548;2023-08-21T05:40:41;2.75;;;2.05;;
48805;SDS011;34625;47.176;27.548;2023-08-21T05:43:08;1.85;;;1.70;;
48805;SDS011;34625;47.176;27.548;2023-08-21T05:45:36;2.35;;;2.15;;
48805;SDS011;34625;47.176;27.548;2023-08-21T05:48:02;5.35;;;2.78;;
48805;SDS011;34625;47.176;27.548;2023-08-21T05:50:29;1.45;;;1.35;;
48805;SDS011;34625;47.176;27.548;2023-08-21T05:52:55;7.05;;;5.07;;
48805;SDS011;34625;47.176;27.548;2023-08-21T05:55:23;7.32;;;5.78;;
48805;SDS011;34625;47.176;27.548;2023-08-21T05:57:50;5.32;;;3.15;;
48805;SDS011;34625;47.176;27.548;2023-08-21T06:00:17;7.68;;;6.20;;
48805;SDS011;34625;47.176;27.548;2023-08-21T06:02:43;1.20;;;1.10;;
48805;SDS011;34625;47.176;27.548;2023-08-21T06:05:19;0.80;;;0.80;;
48805;SDS011;34625;47.176;27.548;2023-08-21T06:07:48;5.28;;;4.55;;
48805;SDS011;34625;47.176;27.548;2023-08-21T06:10:16;5.10;;;3.33;;
48805;SDS011;34625;47.176;27.548;2023-08-21T06:12:42;1.80;;;1.52;;
48805;SDS011;34625;47.176;27.548;2023-08-21T06:15:09;0.70;;;0.70;;
48805;SDS011;34625;47.176;27.548;2023-08-21T06:17:36;3.30;;;3.00;;
48805;SDS011;34625;47.176;27.548;2023-08-21T06:20:03;5.43;;;4.38;;
48805;SDS011;34625;47.176;27.548;2023-08-21T06:22:34;2.33;;;2.13;;
48805;SDS011;34625;47.176;27.548;2023-08-21T06:25:01;6.43;;;4.53;;
48805;SDS011;34625;47.176;27.548;2023-08-21T06:27:27;7.78;;;5.05;;
48805;SDS011;34625;47.176;27.548;2023-08-21T06:29:53;8.25;;;6.15;;
48805;SDS011;34625;47.176;27.548;2023-08-21T06:32:19;8.10;;;6.38;;
48805;SDS011;34625;47.176;27.548;2023-08-21T06:34:46;7.38;;;6.28;;
48805;SDS011;34625;47.176;27.548;2023-08-21T06:37:12;9.57;;;6.30;;
48805;SDS011;34625;47.176;27.548;2023-08-21T06:39:38;8.52;;;6.03;;
48805;SDS011;34625;47.176;27.548;2023-08-21T06:42:04;8.15;;;6.32;;
48805;SDS011;34625;47.176;27.548;2023-08-21T06:44:38;9.20;;;7.75;;
48805;SDS011;34625;47.176;27.548;2023-08-21T06:47:05;14.82;;;9.88;;
48805;SDS011;34625;47.176;27.548;2023-08-21T06:49:31;8.98;;;5.97;;
48805;SDS011;34625;47.176;27.548;2023-08-21T06:51:58;7.22;;;6.22;;
48805;SDS011;34625;47.176;27.548;2023-08-21T06:54:24;9.40;;;6.20;;
48805;SDS011;34625;47.176;27.548;2023-08-21T06:56:50;8.32;;;6.07;;
48805;SDS011;34625;47.176;27.548;2023-08-21T06:59:16;7.90;;;6.38;;
48805;SDS011;34625;47.176;27.548;2023-08-21T07:01:42;7.47;;;6.13;;
48805;SDS011;34625;47.176;27.548;2023-08-21T07:04:08;8.90;;;5.97;;
48805;SDS011;34625;47.176;27.548;2023-08-21T07:06:34;9.13;;;6.53;;
48805;SDS011;34625;47.176;27.548;2023-08-21T07:09:00;10.18;;;6.40;;
48805;SDS011;34625;47.176;27.548;2023-08-21T07:11:26;6.95;;;5.55;;
48805;SDS011;34625;47.176;27.548;2023-08-21T07:13:52;6.40;;;5.75;;
48805;SDS011;34625;47.176;27.548;2023-08-21T07:16:18;6.80;;;5.50;;
48805;SDS011;34625;47.176;27.548;2023-08-21T07:18:44;9.32;;;6.22;;
48805;SDS011;34625;47.176;27.548;2023-08-21T07:21:11;7.85;;;5.53;;
48805;SDS011;34625;47.176;27.548;2023-08-21T07:23:36;7.88;;;6.00;;
48805;SDS011;34625;47.176;27.548;2023-08-21T07:26:02;6.40;;;5.80;;
48805;SDS011;34625;47.176;27.548;2023-08-21T07:28:30;6.03;;;5.45;;
48805;SDS011;34625;47.176;27.548;2023-08-21T07:30:56;11.20;;;5.82;;
48805;SDS011;34625;47.176;27.548;2023-08-21T07:33:23;7.07;;;6.22;;
48805;SDS011;34625;47.176;27.548;2023-08-21T07:38:28;9.52;;;6.82;;
48805;SDS011;34625;47.176;27.548;2023-08-21T07:41:10;6.10;;;5.50;;
48805;SDS011;34625;47.176;27.548;2023-08-21T07:43:37;9.65;;;5.85;;
48805;SDS011;34625;47.176;27.548;2023-08-21T07:46:10;8.23;;;5.55;;
48805;SDS011;34625;47.176;27.548;2023-08-21T07:48:44;7.10;;;6.25;;
48805;SDS011;34625;47.176;27.548;2023-08-21T07:51:11;6.82;;;5.97;;
48805;SDS011;34625;47.176;27.548;2023-08-21T07:53:37;6.28;;;5.05;;
48805;SDS011;34625;47.176;27.548;2023-08-21T07:56:04;6.70;;;5.38;;
48805;SDS011;34625;47.176;27.548;2023-08-21T07:58:30;8.63;;;5.70;;
48805;SDS011;34625;47.176;27.548;2023-08-21T08:00:56;10.30;;;6.35;;
48805;SDS011;34625;47.176;27.548;2023-08-21T08:03:23;6.82;;;5.78;;
48805;SDS011;34625;47.176;27.548;2023-08-21T08:05:49;7.43;;;5.55;;
48805;SDS011;34625;47.176;27.548;2023-08-21T08:08:18;9.38;;;6.00;;
48805;SDS011;34625;47.176;27.548;2023-08-21T08:10:44;8.65;;;5.70;;
48805;SDS011;34625;47.176;27.548;2023-08-21T08:13:10;7.72;;;6.00;;
48805;SDS011;34625;47.176;27.548;2023-08-21T08:15:37;6.95;;;5.78;;
48805;SDS011;34625;47.176;27.548;2023-08-21T08:18:06;9.27;;;5.40;;
48805;SDS011;34625;47.176;27.548;2023-08-21T08:20:37;6.35;;;5.75;;
48805;SDS011;34625;47.176;27.548;2023-08-21T08:23:03;7.78;;;5.60;;
48805;SDS011;34625;47.176;27.548;2023-08-21T08:25:29;8.85;;;5.63;;
48805;SDS011;34625;47.176;27.548;2023-08-21T08:27:55;9.63;;;6.47;;
48805;SDS011;34625;47.176;27.548;2023-08-21T08:30:23;8.50;;;5.82;;
48805;SDS011;34625;47.176;27.548;2023-08-21T08:32:49;7.90;;;5.95;;
48805;SDS011;34625;47.176;27.548;2023-08-21T08:35:15;7.18;;;6.47;;
48805;SDS011;34625;47.176;27.548;2023-08-21T08:37:41;6.95;;;5.90;;
48805;SDS011;34625;47.176;27.548;2023-08-21T08:40:07;8.80;;;6.57;;
48805;SDS011;34625;47.176;27.548;2023-08-21T08:42:35;8.40;;;6.20;;
48805;SDS011;34625;47.176;27.548;2023-08-21T08:45:04;6.32;;;5.70;;
48805;SDS011;34625;47.176;27.548;2023-08-21T08:47:32;7.88;;;6.40;;
48805;SDS011;34625;47.176;27.548;2023-08-21T08:50:03;6.88;;;6.18;;
48805;SDS011;34625;47.176;27.548;2023-08-21T08:52:38;9.18;;;6.70;;
48805;SDS011;34625;47.176;27.548;2023-08-21T08:55:05;7.53;;;6.28;;
48805;SDS011;34625;47.176;27.548;2023-08-21T08:57:34;6.63;;;5.97;;
48805;SDS011;34625;47.176;27.548;2023-08-21T09:00:04;7.80;;;6.22;;
48805;SDS011;34625;47.176;27.548;2023-08-21T09:02:33;8.70;;;6.13;;
48805;SDS011;34625;47.176;27.548;2023-08-21T09:04:59;9.23;;;6.60;;
48805;SDS011;34625;47.176;27.548;2023-08-21T09:07:25;9.75;;;5.00;;
48805;SDS011;34625;47.176;27.548;2023-08-21T09:09:51;5.10;;;4.38;;
48805;SDS011;34625;47.176;27.548;2023-08-21T09:12:20;7.05;;;5.65;;
48805;SDS011;34625;47.176;27.548;2023-08-21T09:14:46;5.72;;;5.13;;
48805;SDS011;34625;47.176;27.548;2023-08-21T09:17:13;8.93;;;5.78;;
48805;SDS011;34625;47.176;27.548;2023-08-21T09:19:40;5.93;;;5.10;;
48805;SDS011;34625;47.176;27.548;2023-08-21T09:22:16;5.57;;;5.07;;
48805;SDS011;34625;47.176;27.548;2023-08-21T09:27:45;6.05;;;5.45;;
48805;SDS011;34625;47.176;27.548;2023-08-21T09:30:16;5.45;;;4.93;;
48805;SDS011;34625;47.176;27.548;2023-08-21T09:32:52;6.38;;;5.45;;
48805;SDS011;34625;47.176;27.548;2023-08-21T09:35:23;12.43;;;5.53;;
48805;SDS011;34625;47.176;27.548;2023-08-21T09:37:49;5.75;;;5.15;;
48805;SDS011;34625;47.176;27.548;2023-08-21T09:40:18;5.57;;;5.07;;
48805;SDS011;34625;47.176;27.548;2023-08-21T09:42:45;6.28;;;5.50;;
48805;SDS011;34625;47.176;27.548;2023-08-21T09:45:11;6.32;;;5.18;;
48805;SDS011;34625;47.176;27.548;2023-08-21T09:47:37;5.45;;;4.95;;
48805;SDS011;34625;47.176;27.548;2023-08-21T09:50:04;6.43;;;5.43;;
48805;SDS011;34625;47.176;27.548;2023-08-21T09:52:31;5.18;;;4.68;;
48805;SDS011;34625;47.176;27.548;2023-08-21T09:55:17;5.55;;;5.05;;
48805;SDS011;34625;47.176;27.548;2023-08-21T09:57:43;6.20;;;5.00;;
48805;SDS011;34625;47.176;27.548;2023-08-21T10:00:10;5.35;;;4.82;;
48805;SDS011;34625;47.176;27.548;2023-08-21T10:02:48;6.63;;;5.22;;
48805;SDS011;34625;47.176;27.548;2023-08-21T10:05:16;6.28;;;4.65;;
48805;SDS011;34625;47.176;27.548;2023-08-21T10:07:43;7.82;;;5.63;;
48805;SDS011;34625;47.176;27.548;2023-08-21T10:10:13;7.43;;;5.15;;
48805;SDS011;34625;47.176;27.548;2023-08-21T10:12:40;6.63;;;5.93;;
48805;SDS011;34625;47.176;27.548;2023-08-21T10:15:06;7.32;;;6.30;;
48805;SDS011;34625;47.176;27.548;2023-08-21T10:17:35;10.05;;;6.32;;
48805;SDS011;34625;47.176;27.548;2023-08-21T10:20:03;6.28;;;5.53;;
48805;SDS011;34625;47.176;27.548;2023-08-21T10:25:18;6.45;;;4.97;;
48805;SDS011;34625;47.176;27.548;2023-08-21T10:27:57;5.18;;;4.53;;
48805;SDS011;34625;47.176;27.548;2023-08-21T10:30:29;11.45;;;6.45;;
48805;SDS011;34625;47.176;27.548;2023-08-21T10:32:56;9.60;;;6.55;;
48805;SDS011;34625;47.176;27.548;2023-08-21T10:35:24;6.30;;;5.65;;
48805;SDS011;34625;47.176;27.548;2023-08-21T10:40:37;12.63;;;6.28;;
48805;SDS011;34625;47.176;27.548;2023-08-21T10:43:04;6.40;;;4.93;;
48805;SDS011;34625;47.176;27.548;2023-08-21T10:45:53;6.63;;;5.28;;
48805;SDS011;34625;47.176;27.548;2023-08-21T10:48:22;5.15;;;4.72;;
48805;SDS011;34625;47.176;27.548;2023-08-21T10:50:48;6.07;;;5.45;;
48805;SDS011;34625;47.176;27.548;2023-08-21T10:53:15;5.85;;;5.03;;
48805;SDS011;34625;47.176;27.548;2023-08-21T10:55:41;6.93;;;5.03;;
48805;SDS011;34625;47.176;27.548;2023-08-21T10:58:08;5.07;;;4.10;;
48805;SDS011;34625;47.176;27.548;2023-08-21T11:00:37;5.18;;;4.68;;
48805;SDS011;34625;47.176;27.548;2023-08-21T11:03:03;6.22;;;5.30;;
48805;SDS011;34625;47.176;27.548;2023-08-21T11:05:29;10.23;;;4.93;;
48805;SDS011;34625;47.176;27.548;2023-08-21T11:07:55;4.35;;;3.90;;
48805;SDS011;34625;47.176;27.548;2023-08-21T11:10:22;5.38;;;4.53;;
48805;SDS011;34625;47.176;27.548;2023-08-21T11:12:50;6.13;;;5.20;;
48805;SDS011;34625;47.176;27.548;2023-08-21T11:15:22;6.20;;;4.80;;
48805;SDS011;34625;47.176;27.548;2023-08-21T11:17:54;5.88;;;5.13;;
48805;SDS011;34625;47.176;27.548;2023-08-21T11:20:22;8.45;;;4.97;;
48805;SDS011;34625;47.176;27.548;2023-08-21T11:22:56;5.63;;;5.05;;
48805;SDS011;34625;47.176;27.548;2023-08-21T11:25:24;5.97;;;4.93;;
48805;SDS011;34625;47.176;27.548;2023-08-21T11:27:50;6.22;;;5.15;;
48805;SDS011;34625;47.176;27.548;2023-08-21T11:30:17;7.15;;;4.88;;
48805;SDS011;34625;47.176;27.548;2023-08-21T11:32:43;5.78;;;4.50;;
48805;SDS011;34625;47.176;27.548;2023-08-21T11:35:09;5.60;;;5.10;;
48805;SDS011;34625;47.176;27.548;2023-08-21T11:37:42;6.05;;;5.25;;
48805;SDS011;34625;47.176;27.548;2023-08-21T11:40:11;5.47;;;4.97;;
48805;SDS011;34625;47.176;27.548;2023-08-21T11:42:39;8.50;;;5.07;;
48805;SDS011;34625;47.176;27.548;2023-08-21T11:45:05;9.20;;;4.68;;
48805;SDS011;34625;47.176;27.548;2023-08-21T11:47:33;6.20;;;4.70;;
48805;SDS011;34625;47.176;27.548;2023-08-21T11:50:06;5.88;;;4.63;;
48805;SDS011;34625;47.176;27.548;2023-08-21T11:52:36;5.10;;;4.35;;
48805;SDS011;34625;47.176;27.548;2023-08-21T11:55:07;6.10;;;4.68;;
48805;SDS011;34625;47.176;27.548;2023-08-21T11:57:48;5.07;;;4.45;;
48805;SDS011;34625;47.176;27.548;2023-08-21T12:00:15;5.50;;;4.38;;
48805;SDS011;34625;47.176;27.548;2023-08-21T12:02:59;4.93;;;4.43;;
48805;SDS011;34625;47.176;27.548;2023-08-21T12:05:28;4.65;;;4.25;;
48805;SDS011;34625;47.176;27.548;2023-08-21T12:07:54;7.30;;;4.00;;
48805;SDS011;34625;47.176;27.548;2023-08-21T12:10:27;7.55;;;5.10;;
48805;SDS011;34625;47.176;27.548;2023-08-21T12:12:54;6.13;;;5.60;;
48805;SDS011;34625;47.176;27.548;2023-08-21T12:15:21;5.15;;;4.65;;
48805;SDS011;34625;47.176;27.548;2023-08-21T12:17:47;3.47;;;3.17;;
48805;SDS011;34625;47.176;27.548;2023-08-21T12:20:13;4.68;;;4.28;;
48805;SDS011;34625;47.176;27.548;2023-08-21T12:22:39;4.85;;;4.35;;
48805;SDS011;34625;47.176;27.548;2023-08-21T12:25:06;5.10;;;4.10;;
48805;SDS011;34625;47.176;27.548;2023-08-21T12:27:32;4.43;;;4.03;;
48805;SDS011;34625;47.176;27.548;2023-08-21T12:29:58;8.52;;;5.28;;
48805;SDS011;34625;47.176;27.548;2023-08-21T12:32:24;4.65;;;4.20;;
48805;SDS011;34625;47.176;27.548;2023-08-21T12:34:50;5.80;;;3.72;;
48805;SDS011;34625;47.176;27.548;2023-08-21T12:37:17;7.90;;;4.53;;
48805;SDS011;34625;47.176;27.548;2023-08-21T12:39:44;6.05;;;3.72;;
48805;SDS011;34625;47.176;27.548;2023-08-21T12:42:10;4.07;;;3.70;;
48805;SDS011;34625;47.176;27.548;2023-08-21T12:44:36;4.07;;;3.67;;
48805;SDS011;34625;47.176;27.548;2023-08-21T12:47:02;4.82;;;3.42;;
48805;SDS011;34625;47.176;27.548;2023-08-21T12:49:29;6.38;;;4.30;;
48805;SDS011;34625;47.176;27.548;2023-08-21T12:51:55;4.82;;;3.97;;
48805;SDS011;34625;47.176;27.548;2023-08-21T12:54:21;5.60;;;4.05;;
48805;SDS011;34625;47.176;27.548;2023-08-21T12:56:47;7.18;;;5.65;;
48805;SDS011;34625;47.176;27.548;2023-08-21T12:59:13;4.07;;;3.42;;
48805;SDS011;34625;47.176;27.548;2023-08-21T13:01:39;4.47;;;4.05;;
48805;SDS011;34625;47.176;27.548;2023-08-21T13:04:05;4.18;;;3.70;;
48805;SDS011;34625;47.176;27.548;2023-08-21T13:06:31;3.33;;;3.03;;
48805;SDS011;34625;47.176;27.548;2023-08-21T13:08:57;4.10;;;3.60;;
48805;SDS011;34625;47.176;27.548;2023-08-21T13:11:23;4.97;;;3.35;;
48805;SDS011;34625;47.176;27.548;2023-08-21T13:13:49;3.63;;;3.25;;
48805;SDS011;34625;47.176;27.548;2023-08-21T13:16:15;5.63;;;4.90;;
48805;SDS011;34625;47.176;27.548;2023-08-21T13:18:41;8.05;;;5.40;;
48805;SDS011;34625;47.176;27.548;2023-08-21T13:21:07;5.40;;;4.03;;
48805;SDS011;34625;47.176;27.548;2023-08-21T13:23:33;4.18;;;3.72;;
48805;SDS011;34625;47.176;27.548;2023-08-21T13:26:00;4.78;;;3.58;;
48805;SDS011;34625;47.176;27.548;2023-08-21T13:28:27;5.97;;;4.60;;
48805;SDS011;34625;47.176;27.548;2023-08-21T13:30:53;5.80;;;4.65;;
48805;SDS011;34625;47.176;27.548;2023-08-21T13:33:19;3.78;;;3.47;;
48805;SDS011;34625;47.176;27.548;2023-08-21T13:35:45;4.18;;;3.78;;
48805;SDS011;34625;47.176;27.548;2023-08-21T13:38:12;5.90;;;5.20;;
48805;SDS011;34625;47.176;27.548;2023-08-21T13:40:39;4.80;;;3.63;;
48805;SDS011;34625;47.176;27.548;2023-08-21T13:43:08;8.32;;;4.65;;
48805;SDS011;34625;47.176;27.548;2023-08-21T13:45:37;4.50;;;4.07;;
48805;SDS011;34625;47.176;27.548;2023-08-21T13:48:05;5.25;;;4.03;;
48805;SDS011;34625;47.176;27.548;2023-08-21T13:50:31;3.65;;;3.35;;
48805;SDS011;34625;47.176;27.548;2023-08-21T13:52:57;11.00;;;5.20;;
48805;SDS011;34625;47.176;27.548;2023-08-21T13:55:23;4.07;;;3.72;;
48805;SDS011;34625;47.176;27.548;2023-08-21T13:57:49;3.67;;;3.38;;
48805;SDS011;34625;47.176;27.548;2023-08-21T14:00:15;4.15;;;3.72;;
48805;SDS011;34625;47.176;27.548;2023-08-21T14:02:43;4.03;;;3.60;;
48805;SDS011;34625;47.176;27.548;2023-08-21T14:05:09;6.82;;;3.50;;
48805;SDS011;34625;47.176;27.548;2023-08-21T14:07:36;3.78;;;3.47;;
48805;SDS011;34625;47.176;27.548;2023-08-21T14:10:03;4.57;;;3.33;;
48805;SDS011;34625;47.176;27.548;2023-08-21T14:12:32;4.22;;;3.83;;
48805;SDS011;34625;47.176;27.548;2023-08-21T14:14:59;5.00;;;4.22;;
48805;SDS011;34625;47.176;27.548;2023-08-21T14:17:25;3.80;;;3.40;;
48805;SDS011;34625;47.176;27.548;2023-08-21T14:19:52;4.45;;;3.72;;
48805;SDS011;34625;47.176;27.548;2023-08-21T14:22:18;4.35;;;3.75;;
48805;SDS011;34625;47.176;27.548;2023-08-21T14:24:45;4.70;;;3.92;;
48805;SDS011;34625;47.176;27.548;2023-08-21T14:27:11;4.75;;;3.50;;
48805;SDS011;34625;47.176;27.548;2023-08-21T14:29:37;3.50;;;3.20;;
48805;SDS011;34625;47.176;27.548;2023-08-21T14:32:03;4.55;;;3.88;;
48805;SDS011;34625;47.176;27.548;2023-08-21T14:34:29;4.10;;;3.72;;
48805;SDS011;34625;47.176;27.548;2023-08-21T14:36:55;3.80;;;3.45;;
48805;SDS011;34625;47.176;27.548;2023-08-21T14:39:22;5.10;;;3.83;;
48805;SDS011;34625;47.176;27.548;2023-08-21T14:41:58;4.88;;;3.70;;
48805;SDS011;34625;47.176;27.548;2023-08-21T14:44:24;3.95;;;3.25;;
48805;SDS011;34625;47.176;27.548;2023-08-21T14:46:54;5.43;;;3.88;;
48805;SDS011;34625;47.176;27.548;2023-08-21T14:49:21;4.63;;;4.18;;
48805;SDS011;34625;47.176;27.548;2023-08-21T14:51:47;3.92;;;3.50;;